Rushland, Pennsylvania
Current Conditions -  °F | °C
As of 10:54 AM on Sunday 25 Jan 2015 (Local Time) from KDYL Reporting Station
Overcast Overcast  
Wind Chill: 32°   Ceiling: 4400
Heat Index: 37°   Visibility: 10mi
Dew Point: 30°   Wind: 7mph
Humidity: 76%   Direction: 260°W
Pressure: 29.77"   Gusts: NA
Location:  40.26°N, 75.03°W
Report Text: KDYL 251554Z AUTO 26006KT 10SM OVC044 03/M01 A2977 RMK AO2 SLP089 T00281011
Loading
Personal Weather Stations






























Interactive Weather Map New forecast layout! Learn more

10-Day Weather Forecast

Advertisements
Track Severe Weather on mobile